sensor_id;sensor_type;location;lat;lon;timestamp;pressure;altitude;pressure_sealevel;temperature;humidity
27304;BME280;14791;52.392;13.092;2023-04-27T00:01:11;101401.76;;;13.38;36.86
27304;BME280;14791;52.392;13.092;2023-04-27T00:03:41;101398.67;;;13.37;36.88
27304;BME280;14791;52.392;13.092;2023-04-27T00:06:10;101399.53;;;13.38;36.92
27304;BME280;14791;52.392;13.092;2023-04-27T00:08:38;101400.02;;;13.37;36.93
27304;BME280;14791;52.392;13.092;2023-04-27T00:11:07;101401.36;;;13.37;36.96
27304;BME280;14791;52.392;13.092;2023-04-27T00:13:36;101394.65;;;13.37;36.98
27304;BME280;14791;52.392;13.092;2023-04-27T00:16:05;101390.05;;;13.39;36.98
27304;BME280;14791;52.392;13.092;2023-04-27T00:18:34;101391.02;;;13.38;37.01
27304;BME280;14791;52.392;13.092;2023-04-27T00:21:03;101396.39;;;13.38;37.04
27304;BME280;14791;52.392;13.092;2023-04-27T00:23:32;101397.13;;;13.40;37.06
27304;BME280;14791;52.392;13.092;2023-04-27T00:26:02;101403.39;;;13.41;37.07
27304;BME280;14791;52.392;13.092;2023-04-27T00:28:30;101398.47;;;13.40;37.07
27304;BME280;14791;52.392;13.092;2023-04-27T00:30:59;101394.93;;;13.40;37.08
27304;BME280;14791;52.392;13.092;2023-04-27T00:33:30;101394.08;;;13.39;37.14
27304;BME280;14791;52.392;13.092;2023-04-27T00:36:00;101390.54;;;13.39;37.15
27304;BME280;14791;52.392;13.092;2023-04-27T00:38:29;101393.31;;;13.37;37.16
27304;BME280;14791;52.392;13.092;2023-04-27T00:41:02;101397.33;;;13.37;37.17
27304;BME280;14791;52.392;13.092;2023-04-27T00:43:32;101400.59;;;13.35;37.21
27304;BME280;14791;52.392;13.092;2023-04-27T00:46:01;101398.59;;;13.32;37.24
27304;BME280;14791;52.392;13.092;2023-04-27T00:48:30;101402.33;;;13.29;37.27
27304;BME280;14791;52.392;13.092;2023-04-27T00:50:59;101406.48;;;13.26;37.33
27304;BME280;14791;52.392;13.092;2023-04-27T00:53:29;101403.92;;;13.25;37.40
27304;BME280;14791;52.392;13.092;2023-04-27T00:55:59;101405.34;;;13.23;37.45
27304;BME280;14791;52.392;13.092;2023-04-27T00:58:29;101404.86;;;13.24;37.47
27304;BME280;14791;52.392;13.092;2023-04-27T01:00:59;101407.55;;;13.24;37.50
27304;BME280;14791;52.392;13.092;2023-04-27T01:03:29;101404.01;;;13.23;37.56
27304;BME280;14791;52.392;13.092;2023-04-27T01:05:58;101410.14;;;13.25;37.55
27304;BME280;14791;52.392;13.092;2023-04-27T01:08:28;101409.17;;;13.26;37.55
27304;BME280;14791;52.392;13.092;2023-04-27T01:10:57;101407.83;;;13.26;37.58
27304;BME280;14791;52.392;13.092;2023-04-27T01:13:26;101414.48;;;13.28;37.63
27304;BME280;14791;52.392;13.092;2023-04-27T01:15:55;101414.86;;;13.29;37.65
27304;BME280;14791;52.392;13.092;2023-04-27T01:18:24;101413.43;;;13.30;37.66
27304;BME280;14791;52.392;13.092;2023-04-27T01:20:53;101413.84;;;13.31;37.68
27304;BME280;14791;52.392;13.092;2023-04-27T01:23:22;101415.91;;;13.33;37.68
27304;BME280;14791;52.392;13.092;2023-04-27T01:25:51;101418.59;;;13.33;37.69
27304;BME280;14791;52.392;13.092;2023-04-27T01:28:21;101414.58;;;13.33;37.70
27304;BME280;14791;52.392;13.092;2023-04-27T01:30:50;101418.71;;;13.32;37.67
27304;BME280;14791;52.392;13.092;2023-04-27T01:33:18;101419.37;;;13.28;37.70
27304;BME280;14791;52.392;13.092;2023-04-27T01:35:48;101426.16;;;13.27;37.75
27304;BME280;14791;52.392;13.092;2023-04-27T01:38:17;101423.76;;;13.22;37.79
27304;BME280;14791;52.392;13.092;2023-04-27T01:40:46;101426.52;;;13.20;37.87
27304;BME280;14791;52.392;13.092;2023-04-27T01:43:15;101421.24;;;13.19;37.89
27304;BME280;14791;52.392;13.092;2023-04-27T01:48:03;101430.91;;;13.22;37.93
27304;BME280;14791;52.392;13.092;2023-04-27T01:50:33;101423.06;;;13.11;37.98
27304;BME280;14791;52.392;13.092;2023-04-27T01:53:01;101433.02;;;13.16;38.00
27304;BME280;14791;52.392;13.092;2023-04-27T01:55:30;101433.02;;;13.16;38.05
27304;BME280;14791;52.392;13.092;2023-04-27T01:57:59;101440.22;;;13.16;38.07
27304;BME280;14791;52.392;13.092;2023-04-27T02:00:28;101440.22;;;13.16;38.08
27304;BME280;14791;52.392;13.092;2023-04-27T02:02:59;101445.21;;;13.15;38.09
27304;BME280;14791;52.392;13.092;2023-04-27T02:05:28;101447.69;;;13.11;38.10
27304;BME280;14791;52.392;13.092;2023-04-27T02:07:57;101452.84;;;13.07;38.14
27304;BME280;14791;52.392;13.092;2023-04-27T02:10:26;101454.37;;;13.04;38.21
27304;BME280;14791;52.392;13.092;2023-04-27T02:12:58;101448.23;;;13.02;38.28
27304;BME280;14791;52.392;13.092;2023-04-27T02:15:27;101450.14;;;12.99;38.30
27304;BME280;14791;52.392;13.092;2023-04-27T02:17:56;101458.76;;;12.97;38.35
27304;BME280;14791;52.392;13.092;2023-04-27T02:20:25;101456.48;;;12.98;38.34
27304;BME280;14791;52.392;13.092;2023-04-27T02:22:54;101457.05;;;12.96;38.38
27304;BME280;14791;52.392;13.092;2023-04-27T02:25:25;101458.47;;;12.95;38.36
27304;BME280;14791;52.392;13.092;2023-04-27T02:27:54;101462.20;;;12.92;38.36
27304;BME280;14791;52.392;13.092;2023-04-27T02:30:23;101461.42;;;12.90;38.35
27304;BME280;14791;52.392;13.092;2023-04-27T02:32:52;101462.47;;;12.88;38.39
27304;BME280;14791;52.392;13.092;2023-04-27T02:35:21;101461.73;;;12.86;38.38
27304;BME280;14791;52.392;13.092;2023-04-27T02:37:50;101463.92;;;12.86;38.41
27304;BME280;14791;52.392;13.092;2023-04-27T02:40:19;101457.22;;;12.86;38.40
27304;BME280;14791;52.392;13.092;2023-04-27T02:42:48;101466.20;;;12.85;38.36
27304;BME280;14791;52.392;13.092;2023-04-27T02:45:17;101461.41;;;12.83;38.34
27304;BME280;14791;52.392;13.092;2023-04-27T02:47:46;101463.71;;;12.82;38.35
27304;BME280;14791;52.392;13.092;2023-04-27T02:50:17;101465.61;;;12.80;38.40
27304;BME280;14791;52.392;13.092;2023-04-27T02:52:46;101461.30;;;12.77;38.39
27304;BME280;14791;52.392;13.092;2023-04-27T02:55:15;101462.16;;;12.78;38.40
27304;BME280;14791;52.392;13.092;2023-04-27T02:57:44;101469.64;;;12.80;38.40
27304;BME280;14791;52.392;13.092;2023-04-27T03:00:13;101467.07;;;12.79;38.37
27304;BME280;14791;52.392;13.092;2023-04-27T03:02:42;101471.54;;;12.78;38.38
27304;BME280;14791;52.392;13.092;2023-04-27T03:05:11;101477.87;;;12.77;38.44
27304;BME280;14791;52.392;13.092;2023-04-27T03:07:40;101472.51;;;12.77;38.45
27304;BME280;14791;52.392;13.092;2023-04-27T03:10:10;101471.25;;;12.75;38.49
27304;BME280;14791;52.392;13.092;2023-04-27T03:12:38;101476.12;;;12.76;38.55
27304;BME280;14791;52.392;13.092;2023-04-27T03:15:08;101477.87;;;12.77;38.42
27304;BME280;14791;52.392;13.092;2023-04-27T03:17:37;101477.87;;;12.77;38.42
27304;BME280;14791;52.392;13.092;2023-04-27T03:20:07;101479.21;;;12.77;38.53
27304;BME280;14791;52.392;13.092;2023-04-27T03:22:37;101475.75;;;12.75;38.53
27304;BME280;14791;52.392;13.092;2023-04-27T03:25:06;101475.75;;;12.75;38.53
27304;BME280;14791;52.392;13.092;2023-04-27T03:27:35;101488.11;;;12.77;38.56
27304;BME280;14791;52.392;13.092;2023-04-27T03:30:05;101485.91;;;12.77;38.59
27304;BME280;14791;52.392;13.092;2023-04-27T03:32:34;101479.21;;;12.77;38.56
27304;BME280;14791;52.392;13.092;2023-04-27T03:35:03;101486.84;;;12.76;38.59
27304;BME280;14791;52.392;13.092;2023-04-27T03:37:32;101491.84;;;12.75;38.63
27304;BME280;14791;52.392;13.092;2023-04-27T03:40:02;101494.89;;;12.76;38.66
27304;BME280;14791;52.392;13.092;2023-04-27T03:42:33;101495.38;;;12.75;38.73
27304;BME280;14791;52.392;13.092;2023-04-27T03:45:02;101506.02;;;12.77;38.67
27304;BME280;14791;52.392;13.092;2023-04-27T03:47:33;101506.02;;;12.77;38.67
27304;BME280;14791;52.392;13.092;2023-04-27T03:50:05;101514.55;;;12.76;38.63
27304;BME280;14791;52.392;13.092;2023-04-27T03:52:34;101515.96;;;12.75;38.66
27304;BME280;14791;52.392;13.092;2023-04-27T03:55:04;101507.11;;;12.66;38.53
27304;BME280;14791;52.392;13.092;2023-04-27T03:57:33;101507.11;;;12.66;38.53
27304;BME280;14791;52.392;13.092;2023-04-27T04:00:03;101513.73;;;12.67;38.68
27304;BME280;14791;52.392;13.092;2023-04-27T04:02:35;101512.10;;;12.65;38.75
27304;BME280;14791;52.392;13.092;2023-04-27T04:05:05;101518.02;;;12.63;38.81
27304;BME280;14791;52.392;13.092;2023-04-27T04:07:34;101514.86;;;12.63;38.83
27304;BME280;14791;52.392;13.092;2023-04-27T04:10:04;101521.26;;;12.61;38.79
27304;BME280;14791;52.392;13.092;2023-04-27T04:12:33;101521.26;;;12.61;38.79
27304;BME280;14791;52.392;13.092;2023-04-27T04:15:06;101526.14;;;12.61;38.91
27304;BME280;14791;52.392;13.092;2023-04-27T04:17:35;101531.20;;;12.59;38.93
27304;BME280;14791;52.392;13.092;2023-04-27T04:20:05;101531.39;;;12.55;38.99
27304;BME280;14791;52.392;13.092;2023-04-27T04:22:37;101526.59;;;12.53;39.02
27304;BME280;14791;52.392;13.092;2023-04-27T04:25:07;101533.95;;;12.50;39.27
27304;BME280;14791;52.392;13.092;2023-04-27T04:27:36;101533.95;;;12.50;39.27
27304;BME280;14791;52.392;13.092;2023-04-27T04:30:06;101533.47;;;12.50;39.21
27304;BME280;14791;52.392;13.092;2023-04-27T04:32:35;101532.69;;;12.48;39.28
27304;BME280;14791;52.392;13.092;2023-04-27T04:35:06;101529.60;;;12.47;39.27
27304;BME280;14791;52.392;13.092;2023-04-27T04:37:35;101537.27;;;12.46;39.32
27304;BME280;14791;52.392;13.092;2023-04-27T04:40:06;101525.95;;;12.41;39.38
27304;BME280;14791;52.392;13.092;2023-04-27T04:42:38;101534.77;;;12.43;39.40
27304;BME280;14791;52.392;13.092;2023-04-27T04:45:09;101538.37;;;12.42;39.40
27304;BME280;14791;52.392;13.092;2023-04-27T04:47:38;101548.06;;;12.45;39.51
27304;BME280;14791;52.392;13.092;2023-04-27T04:50:07;101547.61;;;12.45;39.50
27304;BME280;14791;52.392;13.092;2023-04-27T04:52:37;101541.47;;;12.43;39.48
27304;BME280;14791;52.392;13.092;2023-04-27T04:55:06;101545.37;;;12.45;39.53
27304;BME280;14791;52.392;13.092;2023-04-27T04:57:35;101547.42;;;12.48;39.46
27304;BME280;14791;52.392;13.092;2023-04-27T05:00:06;101554.34;;;12.52;39.50
27304;BME280;14791;52.392;13.092;2023-04-27T05:02:40;101555.58;;;12.54;39.48
27304;BME280;14791;52.392;13.092;2023-04-27T05:05:09;101557.22;;;12.56;39.42
27304;BME280;14791;52.392;13.092;2023-04-27T05:07:38;101558.41;;;12.60;39.38
27304;BME280;14791;52.392;13.092;2023-04-27T05:10:07;101559.08;;;12.63;39.32
27304;BME280;14791;52.392;13.092;2023-04-27T05:12:36;101560.34;;;12.65;39.31
27304;BME280;14791;52.392;13.092;2023-04-27T05:15:06;101560.23;;;12.66;39.23
27304;BME280;14791;52.392;13.092;2023-04-27T05:17:35;101561.50;;;12.68;39.23
27304;BME280;14791;52.392;13.092;2023-04-27T05:20:05;101563.55;;;12.71;39.24
27304;BME280;14791;52.392;13.092;2023-04-27T05:22:34;101562.50;;;12.74;39.15
27304;BME280;14791;52.392;13.092;2023-04-27T05:25:04;101565.00;;;12.77;39.08
27304;BME280;14791;52.392;13.092;2023-04-27T05:27:33;101561.34;;;12.78;39.07
27304;BME280;14791;52.392;13.092;2023-04-27T05:30:02;101559.37;;;12.82;39.06
27304;BME280;14791;52.392;13.092;2023-04-27T05:32:31;101561.01;;;12.84;39.06
27304;BME280;14791;52.392;13.092;2023-04-27T05:35:02;101563.98;;;12.87;39.03
27304;BME280;14791;52.392;13.092;2023-04-27T05:37:32;101563.72;;;12.91;38.99
27304;BME280;14791;52.392;13.092;2023-04-27T05:40:01;101562.67;;;12.94;38.93
27304;BME280;14791;52.392;13.092;2023-04-27T05:42:31;101568.33;;;12.96;38.81
27304;BME280;14791;52.392;13.092;2023-04-27T05:45:01;101566.91;;;12.98;38.77
27304;BME280;14791;52.392;13.092;2023-04-27T05:47:30;101569.19;;;12.97;38.66
27304;BME280;14791;52.392;13.092;2023-04-27T05:49:59;101563.45;;;12.96;38.61
27304;BME280;14791;52.392;13.092;2023-04-27T05:52:28;101569.37;;;12.94;38.64
27304;BME280;14791;52.392;13.092;2023-04-27T05:54:58;101566.00;;;12.90;38.67
27304;BME280;14791;52.392;13.092;2023-04-27T05:57:27;101572.70;;;12.90;38.70
27304;BME280;14791;52.392;13.092;2023-04-27T05:59:56;101580.19;;;12.92;38.70
27304;BME280;14791;52.392;13.092;2023-04-27T06:02:25;101575.59;;;12.94;38.75
27304;BME280;14791;52.392;13.092;2023-04-27T06:04:54;101579.84;;;12.98;38.78
27304;BME280;14791;52.392;13.092;2023-04-27T06:07:23;101580.91;;;13.03;38.76
27304;BME280;14791;52.392;13.092;2023-04-27T06:09:53;101584.55;;;13.09;38.76
27304;BME280;14791;52.392;13.092;2023-04-27T06:12:21;101590.63;;;13.13;38.74
27304;BME280;14791;52.392;13.092;2023-04-27T06:14:50;101588.53;;;13.18;38.78
27304;BME280;14791;52.392;13.092;2023-04-27T06:17:21;101591.16;;;13.27;38.81
27304;BME280;14791;52.392;13.092;2023-04-27T06:19:50;101591.09;;;13.35;38.81
27304;BME280;14791;52.392;13.092;2023-04-27T06:22:19;101584.25;;;13.46;38.76
27304;BME280;14791;52.392;13.092;2023-04-27T06:24:48;101590.77;;;13.56;38.72
27304;BME280;14791;52.392;13.092;2023-04-27T06:27:16;101591.45;;;13.67;38.59
27304;BME280;14791;52.392;13.092;2023-04-27T06:29:45;101593.28;;;13.73;38.43
27304;BME280;14791;52.392;13.092;2023-04-27T06:32:14;101594.27;;;13.79;38.34
27304;BME280;14791;52.392;13.092;2023-04-27T06:34:43;101596.06;;;13.86;38.27
27304;BME280;14791;52.392;13.092;2023-04-27T06:37:12;101602.41;;;13.92;38.25
27304;BME280;14791;52.392;13.092;2023-04-27T06:39:43;101591.76;;;13.98;38.15
27304;BME280;14791;52.392;13.092;2023-04-27T06:42:12;101595.02;;;14.03;38.05
27304;BME280;14791;52.392;13.092;2023-04-27T06:44:41;101593.88;;;14.07;37.99
27304;BME280;14791;52.392;13.092;2023-04-27T06:47:10;101599.25;;;14.07;37.88
27304;BME280;14791;52.392;13.092;2023-04-27T06:49:39;101601.93;;;14.07;37.80
27304;BME280;14791;52.392;13.092;2023-04-27T06:52:08;101600.79;;;14.04;37.73
27304;BME280;14791;52.392;13.092;2023-04-27T06:54:36;101605.02;;;14.01;37.65
27304;BME280;14791;52.392;13.092;2023-04-27T06:57:05;101602.98;;;13.97;37.61
27304;BME280;14791;52.392;13.092;2023-04-27T06:59:35;101608.64;;;13.93;37.59
27304;BME280;14791;52.392;13.092;2023-04-27T07:02:04;101603.55;;;13.88;37.64
27304;BME280;14791;52.392;13.092;2023-04-27T07:04:33;101605.09;;;13.85;37.71
27304;BME280;14791;52.392;13.092;2023-04-27T07:07:03;101607.30;;;13.86;37.77
27304;BME280;14791;52.392;13.092;2023-04-27T07:09:32;101611.23;;;13.87;37.81
27304;BME280;14791;52.392;13.092;2023-04-27T07:12:01;101611.90;;;13.91;37.88
27304;BME280;14791;52.392;13.092;2023-04-27T07:14:30;101607.50;;;13.97;37.93
27304;BME280;14791;52.392;13.092;2023-04-27T07:17:00;101609.63;;;14.06;37.95
27304;BME280;14791;52.392;13.092;2023-04-27T07:19:29;101610.97;;;14.13;37.90
27304;BME280;14791;52.392;13.092;2023-04-27T07:21:58;101613.45;;;14.23;37.83
27304;BME280;14791;52.392;13.092;2023-04-27T07:24:26;101611.53;;;14.33;37.71
27304;BME280;14791;52.392;13.092;2023-04-27T07:26:55;101611.89;;;14.41;37.50
27304;BME280;14791;52.392;13.092;2023-04-27T07:29:24;101618.23;;;14.47;37.25
27304;BME280;14791;52.392;13.092;2023-04-27T07:31:54;101615.73;;;14.51;37.12
27304;BME280;14791;52.392;13.092;2023-04-27T07:34:24;101613.73;;;14.55;37.03
27304;BME280;14791;52.392;13.092;2023-04-27T07:36:52;101609.61;;;14.56;36.92
27304;BME280;14791;52.392;13.092;2023-04-27T07:39:21;101614.13;;;14.56;36.84
27304;BME280;14791;52.392;13.092;2023-04-27T07:41:50;101610.95;;;14.56;36.78
27304;BME280;14791;52.392;13.092;2023-04-27T07:44:19;101620.36;;;14.56;36.84
27304;BME280;14791;52.392;13.092;2023-04-27T07:46:48;101617.47;;;14.59;36.82
27304;BME280;14791;52.392;13.092;2023-04-27T07:49:17;101620.44;;;14.62;36.88
27304;BME280;14791;52.392;13.092;2023-04-27T07:51:46;101622.25;;;14.68;36.89
27304;BME280;14791;52.392;13.092;2023-04-27T07:54:15;101623.58;;;14.76;36.83
27304;BME280;14791;52.392;13.092;2023-04-27T07:56:44;101625.67;;;14.85;36.70
27304;BME280;14791;52.392;13.092;2023-04-27T07:59:13;101628.34;;;14.92;36.55
27304;BME280;14791;52.392;13.092;2023-04-27T08:01:42;101624.73;;;14.99;36.46
27304;BME280;14791;52.392;13.092;2023-04-27T08:04:11;101628.02;;;15.04;36.49
27304;BME280;14791;52.392;13.092;2023-04-27T08:06:40;101626.82;;;15.08;36.42
27304;BME280;14791;52.392;13.092;2023-04-27T08:09:09;101629.48;;;15.15;36.37
27304;BME280;14791;52.392;13.092;2023-04-27T08:11:38;101633.03;;;15.23;36.34
27304;BME280;14791;52.392;13.092;2023-04-27T08:14:07;101631.53;;;15.31;36.20
27304;BME280;14791;52.392;13.092;2023-04-27T08:16:39;101629.66;;;15.39;36.14
27304;BME280;14791;52.392;13.092;2023-04-27T08:19:09;101635.28;;;15.49;36.14
27304;BME280;14791;52.392;13.092;2023-04-27T08:21:38;101640.17;;;15.57;36.12
27304;BME280;14791;52.392;13.092;2023-04-27T08:24:07;101636.67;;;15.62;35.93
27304;BME280;14791;52.392;13.092;2023-04-27T08:26:36;101638.20;;;15.66;35.96
27304;BME280;14791;52.392;13.092;2023-04-27T08:29:05;101630.48;;;15.67;35.77
27304;BME280;14791;52.392;13.092;2023-04-27T08:31:34;101638.56;;;15.67;35.70
27304;BME280;14791;52.392;13.092;2023-04-27T08:34:03;101639.14;;;15.65;35.64
27304;BME280;14791;52.392;13.092;2023-04-27T08:36:32;101643.01;;;15.61;35.67
27304;BME280;14791;52.392;13.092;2023-04-27T08:39:01;101640.17;;;15.57;35.70
27304;BME280;14791;52.392;13.092;2023-04-27T08:41:31;101646.72;;;15.52;35.67
27304;BME280;14791;52.392;13.092;2023-04-27T08:44:00;101645.20;;;15.48;35.61
27304;BME280;14791;52.392;13.092;2023-04-27T08:46:30;101641.95;;;15.43;35.45
27304;BME280;14791;52.392;13.092;2023-04-27T08:48:59;101637.59;;;15.35;35.38
27304;BME280;14791;52.392;13.092;2023-04-27T08:51:28;101643.95;;;15.27;35.33
27304;BME280;14791;52.392;13.092;2023-04-27T08:53:58;101636.13;;;15.17;35.34
27304;BME280;14791;52.392;13.092;2023-04-27T08:56:29;101643.09;;;15.06;35.42
27304;BME280;14791;52.392;13.092;2023-04-27T08:58:59;101632.94;;;14.97;35.42
27304;BME280;14791;52.392;13.092;2023-04-27T09:01:30;101634.30;;;14.90;35.46
27304;BME280;14791;52.392;13.092;2023-04-27T09:04:01;101638.27;;;14.84;35.62
27304;BME280;14791;52.392;13.092;2023-04-27T09:06:31;101629.43;;;14.82;35.80
27304;BME280;14791;52.392;13.092;2023-04-27T09:09:01;101631.91;;;14.85;35.92
27304;BME280;14791;52.392;13.092;2023-04-27T09:11:32;101631.89;;;14.93;35.76
27304;BME280;14791;52.392;13.092;2023-04-27T09:14:14;101628.13;;;14.95;35.70
27304;BME280;14791;52.392;13.092;2023-04-27T09:16:33;101635.41;;;15.00;35.64
27304;BME280;14791;52.392;13.092;2023-04-27T09:19:03;101633.20;;;15.00;35.33
27304;BME280;14791;52.392;13.092;2023-04-27T09:21:32;101640.79;;;15.00;35.31
27304;BME280;14791;52.392;13.092;2023-04-27T09:24:11;101639.45;;;15.00;35.31
27304;BME280;14791;52.392;13.092;2023-04-27T09:26:40;101632.72;;;15.00;35.29
27304;BME280;14791;52.392;13.092;2023-04-27T09:29:09;101630.03;;;15.00;35.17
27304;BME280;14791;52.392;13.092;2023-04-27T09:31:39;101633.70;;;14.99;34.98
27304;BME280;14791;52.392;13.092;2023-04-27T09:34:08;101632.16;;;14.95;34.86
27304;BME280;14791;52.392;13.092;2023-04-27T09:36:39;101635.64;;;14.90;34.83
27304;BME280;14791;52.392;13.092;2023-04-27T09:39:08;101635.75;;;14.81;34.89
27304;BME280;14791;52.392;13.092;2023-04-27T09:41:37;101634.91;;;14.74;35.07
27304;BME280;14791;52.392;13.092;2023-04-27T09:44:07;101640.10;;;14.70;35.23
27304;BME280;14791;52.392;13.092;2023-04-27T09:46:36;101625.89;;;14.67;35.36
27304;BME280;14791;52.392;13.092;2023-04-27T09:49:05;101627.23;;;14.67;35.45
27304;BME280;14791;52.392;13.092;2023-04-27T09:51:35;101622.63;;;14.70;35.83
27304;BME280;14791;52.392;13.092;2023-04-27T09:54:04;101615.81;;;14.71;35.74
27304;BME280;14791;52.392;13.092;2023-04-27T09:56:55;101610.14;;;14.76;35.68
27304;BME280;14791;52.392;13.092;2023-04-27T10:02:18;101611.03;;;14.89;35.81
27304;BME280;14791;52.392;13.092;2023-04-27T10:07:21;101607.44;;;15.03;35.49
27304;BME280;14791;52.392;13.092;2023-04-27T10:09:50;101605.42;;;15.06;35.42
27304;BME280;14791;52.392;13.092;2023-04-27T10:14:55;101605.17;;;15.17;35.31
27304;BME280;14791;52.392;13.092;2023-04-27T10:17:29;101603.89;;;15.22;35.30
27304;BME280;14791;52.392;13.092;2023-04-27T10:20:00;101602.91;;;15.30;35.07
27304;BME280;14791;52.392;13.092;2023-04-27T10:22:46;101598.70;;;15.39;35.14
27304;BME280;14791;52.392;13.092;2023-04-27T10:25:18;101596.91;;;15.52;35.02
27304;BME280;14791;52.392;13.092;2023-04-27T10:28:01;101600.32;;;15.62;34.93
27304;BME280;14791;52.392;13.092;2023-04-27T10:30:37;101597.39;;;15.72;34.78
27304;BME280;14791;52.392;13.092;2023-04-27T10:33:08;101597.34;;;15.79;34.45
27304;BME280;14791;52.392;13.092;2023-04-27T10:35:56;101600.39;;;15.80;34.15
27304;BME280;14791;52.392;13.092;2023-04-27T10:38:17;101607.75;;;15.78;33.99
27304;BME280;14791;52.392;13.092;2023-04-27T10:41:01;101600.48;;;15.73;33.90
27304;BME280;14791;52.392;13.092;2023-04-27T10:43:33;101589.89;;;15.70;33.92
27304;BME280;14791;52.392;13.092;2023-04-27T10:46:12;101600.86;;;15.67;33.95
27304;BME280;14791;52.392;13.092;2023-04-27T10:48:42;101600.27;;;15.69;33.59
27304;BME280;14791;52.392;13.092;2023-04-27T10:51:15;101598.92;;;15.69;33.47
27304;BME280;14791;52.392;13.092;2023-04-27T10:53:44;101596.44;;;15.73;33.50
27304;BME280;14791;52.392;13.092;2023-04-27T10:56:14;101588.67;;;15.81;33.43
27304;BME280;14791;52.392;13.092;2023-04-27T10:58:43;101588.88;;;15.91;33.23
27304;BME280;14791;52.392;13.092;2023-04-27T11:01:23;101584.95;;;16.02;32.80
27304;BME280;14791;52.392;13.092;2023-04-27T11:03:57;101586.27;;;16.15;32.80
27304;BME280;14791;52.392;13.092;2023-04-27T11:06:27;101586.56;;;16.23;32.42
27304;BME280;14791;52.392;13.092;2023-04-27T11:08:57;101584.36;;;16.35;32.17
27304;BME280;14791;52.392;13.092;2023-04-27T11:11:26;101588.26;;;16.50;32.05
27304;BME280;14791;52.392;13.092;2023-04-27T11:13:55;101590.80;;;16.64;32.03
27304;BME280;14791;52.392;13.092;2023-04-27T11:16:24;101586.88;;;16.81;31.94
27304;BME280;14791;52.392;13.092;2023-04-27T11:18:53;101580.43;;;16.95;31.70
27304;BME280;14791;52.392;13.092;2023-04-27T11:21:22;101585.89;;;17.06;31.37
27304;BME280;14791;52.392;13.092;2023-04-27T11:23:51;101607.78;;;17.14;31.32
27304;BME280;14791;52.392;13.092;2023-04-27T11:26:23;101594.41;;;17.18;31.47
27304;BME280;14791;52.392;13.092;2023-04-27T11:29:08;101604.98;;;17.21;31.51
27304;BME280;14791;52.392;13.092;2023-04-27T11:31:46;101596.89;;;17.21;31.49
27304;BME280;14791;52.392;13.092;2023-04-27T11:34:20;101601.90;;;17.20;31.47
27304;BME280;14791;52.392;13.092;2023-04-27T11:36:57;101601.05;;;17.20;31.33
27304;BME280;14791;52.392;13.092;2023-04-27T11:39:32;101605.59;;;17.19;31.44
27304;BME280;14791;52.392;13.092;2023-04-27T11:42:19;101604.10;;;17.21;31.17
27304;BME280;14791;52.392;13.092;2023-04-27T11:44:56;101613.55;;;17.21;30.89
27304;BME280;14791;52.392;13.092;2023-04-27T11:47:30;101613.45;;;17.22;30.90
27304;BME280;14791;52.392;13.092;2023-04-27T11:50:02;101615.70;;;17.29;30.72
27304;BME280;14791;52.392;13.092;2023-04-27T11:55:03;101611.81;;;17.50;30.43
27304;BME280;14791;52.392;13.092;2023-04-27T11:57:33;101618.00;;;17.63;30.44
27304;BME280;14791;52.392;13.092;2023-04-27T12:00:04;101613.73;;;17.77;30.26
27304;BME280;14791;52.392;13.092;2023-04-27T12:02:43;101612.91;;;17.88;30.13
27304;BME280;14791;52.392;13.092;2023-04-27T12:05:12;101615.63;;;17.99;30.26
27304;BME280;14791;52.392;13.092;2023-04-27T12:07:42;101611.34;;;18.14;30.30
27304;BME280;14791;52.392;13.092;2023-04-27T12:10:11;101610.97;;;18.24;30.31
27304;BME280;14791;52.392;13.092;2023-04-27T12:12:40;101605.19;;;18.40;30.17
27304;BME280;14791;52.392;13.092;2023-04-27T12:15:09;101605.05;;;18.53;30.01
27304;BME280;14791;52.392;13.092;2023-04-27T12:17:39;101613.41;;;18.61;29.79
27304;BME280;14791;52.392;13.092;2023-04-27T12:20:09;101617.21;;;18.64;29.43
27304;BME280;14791;52.392;13.092;2023-04-27T12:22:38;101615.97;;;18.62;29.33
27304;BME280;14791;52.392;13.092;2023-04-27T12:25:07;101617.45;;;18.66;29.25
27304;BME280;14791;52.392;13.092;2023-04-27T12:27:36;101606.59;;;18.95;29.42
27304;BME280;14791;52.392;13.092;2023-04-27T12:30:06;101616.13;;;19.42;29.50
27304;BME280;14791;52.392;13.092;2023-04-27T12:32:35;101613.81;;;20.01;29.42
27304;BME280;14791;52.392;13.092;2023-04-27T12:35:08;101614.16;;;20.63;29.15
27304;BME280;14791;52.392;13.092;2023-04-27T12:37:37;101611.67;;;21.10;28.79
27304;BME280;14791;52.392;13.092;2023-04-27T12:40:07;101614.83;;;21.44;28.19
27304;BME280;14791;52.392;13.092;2023-04-27T12:42:36;101604.64;;;21.66;27.58
27304;BME280;14791;52.392;13.092;2023-04-27T12:45:06;101605.92;;;21.81;27.53
27304;BME280;14791;52.392;13.092;2023-04-27T12:47:35;101611.77;;;21.86;27.15
27304;BME280;14791;52.392;13.092;2023-04-27T12:50:05;101604.19;;;21.80;27.16
27304;BME280;14791;52.392;13.092;2023-04-27T12:52:34;101613.81;;;21.65;26.80
27304;BME280;14791;52.392;13.092;2023-04-27T12:55:03;101615.98;;;21.42;26.67
27304;BME280;14791;52.392;13.092;2023-04-27T12:57:33;101620.11;;;21.17;26.81
27304;BME280;14791;52.392;13.092;2023-04-27T13:00:02;101620.66;;;21.11;27.03
27304;BME280;14791;52.392;13.092;2023-04-27T13:02:33;101628.82;;;21.20;27.31
27304;BME280;14791;52.392;13.092;2023-04-27T13:05:03;101622.88;;;21.21;27.21
27304;BME280;14791;52.392;13.092;2023-04-27T13:07:33;101633.83;;;21.25;27.06